createdAt,value
2023-01-22T00:02:51.725Z,1035.2938483633918
2023-01-22T00:09:14.306Z,1035.2437418907323
2023-01-22T00:17:30.647Z,1035.2579979273003
2023-01-22T00:23:53.587Z,1035.2143390526903
2023-01-22T00:30:17.535Z,1035.2571125189243
2023-01-22T00:36:40.381Z,1035.17967833799
2023-01-22T00:43:02.583Z,1035.2095064816288
2023-01-22T00:49:25.720Z,1035.1327718582406
2023-01-22T00:55:48.264Z,1035.1484543400888
2023-01-22T01:02:12.198Z,1035.1251717410564
2023-01-22T01:08:36.771Z,1035.2077817351558
2023-01-22T01:14:59.535Z,1035.1567896593738
2023-01-22T01:21:21.570Z,1035.1264555192138
2023-01-22T01:27:44.965Z,1035.1383713262167
2023-01-22T01:34:06.462Z,1035.1436688348472
2023-01-22T01:40:28.906Z,1035.0969236009466
2023-01-22T01:46:52.054Z,1035.1044247012408
2023-01-22T01:57:11.996Z,1035.0779343719908
2023-01-22T02:03:35.224Z,1035.0487479452597
2023-01-22T02:09:58.116Z,1035.0393481925885
2023-01-22T02:16:19.641Z,1035.0247103677873
2023-01-22T02:22:41.801Z,1035.0147613726142
2023-01-22T02:29:05.940Z,1035.1062638795217
2023-01-22T02:35:28.741Z,1035.1170833029057
2023-01-22T02:44:07.427Z,1035.1075274428572
2023-01-22T02:50:30.931Z,1035.0517327786908
2023-01-22T02:56:55.807Z,1035.0895119531867
2023-01-22T03:03:21.199Z,1035.0580296155647
2023-01-22T03:09:45.361Z,1034.9532266378042
2023-01-22T03:17:33.130Z,1034.9248007031795
2023-01-22T03:23:57.618Z,1034.8806121958157
2023-01-22T03:30:22.671Z,1034.8436439863453
2023-01-22T03:41:09.508Z,1034.803690499408
2023-01-22T03:54:51.585Z,1034.766851141988
2023-01-22T04:06:26.229Z,1034.7310117128934
2023-01-22T04:12:50.108Z,1034.6988848880126
2023-01-22T04:19:14.392Z,1034.7368499963773
2023-01-22T04:25:36.841Z,1034.7531571273353
2023-01-22T04:32:01.558Z,1034.7303211200299
2023-01-22T04:38:24.902Z,1034.7526449012564
2023-01-22T04:44:49.866Z,1034.7563471081808
2023-01-22T04:51:14.803Z,1034.7268615369942
2023-01-22T04:57:37.700Z,1034.7357901727473
2023-01-22T05:04:02.666Z,1034.7042529620749
2023-01-22T05:11:07.959Z,1034.6523088179151
2023-01-22T05:17:31.255Z,1034.6519874657242
2023-01-22T05:23:53.341Z,1034.6795383643332
2023-01-22T05:30:16.238Z,1034.6747902929765
2023-01-22T05:36:39.341Z,1034.6995415453036
2023-01-22T05:46:37.472Z,1034.6960608753504
2023-01-22T05:53:01.760Z,1034.7027088917894
2023-01-22T05:59:24.164Z,1034.6972051643954
2023-01-22T06:05:47.053Z,1034.69220022028
2023-01-22T06:12:14.497Z,1034.7082492563527
2023-01-22T06:24:50.512Z,1034.6530617117623
2023-01-22T06:31:14.020Z,1034.670460815525
2023-01-22T06:37:36.711Z,1034.7360153271688
2023-01-22T06:44:01.198Z,1034.7595289582325
2023-01-22T06:51:59.822Z,1034.757959541137
2023-01-22T06:58:23.373Z,1034.8148857850686
2023-01-22T07:13:50.323Z,1035.0000931073184
2023-01-22T07:22:19.761Z,1035.0177012107883
2023-01-22T07:28:43.952Z,1035.027284960691
2023-01-22T07:47:07.453Z,1035.2121551404268
2023-01-22T08:01:06.149Z,1035.223319104806
2023-01-22T08:12:36.948Z,1035.4263929707663
2023-01-22T08:19:01.205Z,1035.5011279907667
2023-01-22T08:30:47.137Z,1035.5909231002763
2023-01-22T08:37:11.919Z,1035.6555695189552
2023-01-22T08:50:28.167Z,1035.564116724071
2023-01-22T09:10:21.995Z,1035.6347497496306
2023-01-22T09:23:04.342Z,1035.6093957325434
2023-01-22T09:29:30.935Z,1035.6010536954273
2023-01-22T09:35:58.327Z,1035.6105040844238
2023-01-22T09:42:25.083Z,1035.6616677129318
2023-01-22T09:48:52.564Z,1035.6475527924572
2023-01-22T09:55:18.622Z,1035.619891242839
2023-01-22T10:01:44.454Z,1035.611983692094
2023-01-22T10:08:09.800Z,1035.6136111711978
2023-01-22T10:14:35.903Z,1035.5490867416313
2023-01-22T10:26:28.075Z,1035.4793090532478
2023-01-22T10:37:51.987Z,1035.4735614795577
2023-01-22T10:44:17.523Z,1035.4503711674613
2023-01-22T10:50:43.767Z,1035.4187858575172
2023-01-22T10:57:10.397Z,1035.4441204499853
2023-01-22T11:03:42.203Z,1035.3984454456825
2023-01-22T11:10:14.796Z,1035.3860961044563
2023-01-22T11:16:41.454Z,1035.3267861290835
2023-01-22T11:23:08.036Z,1035.268146786254
2023-01-22T11:29:34.840Z,1035.2086479643579
2023-01-22T11:36:00.850Z,1035.1805685951188
2023-01-22T11:42:26.844Z,1035.157960874807
2023-01-22T11:48:52.643Z,1035.1041377890072
2023-01-22T11:58:19.679Z,1035.0414615524523
2023-01-22T12:04:51.553Z,1035.015306465482
2023-01-22T12:11:18.846Z,1035.054337795291
2023-01-22T12:18:19.018Z,1035.0821141577037
2023-01-22T12:30:27.041Z,1035.1939269557147
2023-01-22T12:36:52.872Z,1035.1834758126888
2023-01-22T12:43:18.012Z,1035.1598824707232
2023-01-22T12:55:45.043Z,1035.1497944851574
2023-01-22T13:04:29.590Z,1035.227725418856
2023-01-22T13:11:01.990Z,1035.2279947878822
2023-01-22T13:17:27.486Z,1035.2301220901904
2023-01-22T13:26:04.529Z,1035.2281290009375
2023-01-22T13:32:29.337Z,1035.261421930685
2023-01-22T13:38:54.506Z,1035.2894892098466
2023-01-22T13:45:19.572Z,1035.3289660696905
2023-01-22T13:51:44.174Z,1035.376922244204
2023-01-22T13:58:08.708Z,1035.3489613130996
2023-01-22T14:07:31.624Z,1035.3243139023434
2023-01-22T14:14:00.039Z,1035.3772035377274
2023-01-22T14:20:27.271Z,1035.4245066107037
2023-01-22T14:26:58.974Z,1035.4336914113787
2023-01-22T14:33:56.163Z,1035.4721873564572
2023-01-22T14:40:26.067Z,1035.5101315345062
2023-01-22T14:50:04.544Z,1035.620762416063
2023-01-22T14:56:33.722Z,1035.661086727409
2023-01-22T15:03:00.552Z,1035.7115687951025
2023-01-22T15:14:40.170Z,1035.7910730922547
2023-01-22T15:21:02.967Z,1035.8317248589817
2023-01-22T15:27:25.396Z,1035.8576183401235
2023-01-22T15:33:47.717Z,1035.901721936159
2023-01-22T15:41:44.668Z,1035.9218696196124
2023-01-22T15:48:07.996Z,1035.932998942393
2023-01-22T15:54:38.224Z,1036.0407963572584
2023-01-22T16:01:02.303Z,1036.1050255102375
2023-01-22T16:10:01.301Z,1036.132606993419
2023-01-22T16:16:23.877Z,1036.1627884197628
2023-01-22T16:22:48.008Z,1036.1958354902995
2023-01-22T16:29:10.709Z,1036.2056175629984
2023-01-22T16:35:35.853Z,1036.211955624336
2023-01-22T16:41:58.406Z,1036.2260355328308
2023-01-22T16:48:20.796Z,1036.2053396178817
2023-01-22T17:14:28.296Z,1036.24889006807
2023-01-22T17:21:02.109Z,1036.242454113026
2023-01-22T17:35:12.991Z,1036.2578765731866
2023-01-22T17:41:36.478Z,1036.3201574545499
2023-01-22T17:48:03.114Z,1036.380318461812
2023-01-22T17:54:44.014Z,1036.3793079936818
2023-01-22T18:01:33.308Z,1036.4129201217816
2023-01-22T18:08:09.004Z,1036.4341636017343
2023-01-22T18:30:13.091Z,1036.5743407328528
2023-01-22T18:36:52.971Z,1036.6592557913461
2023-01-22T18:43:33.768Z,1036.7053786777453
2023-01-22T18:50:08.187Z,1036.7510239054757
2023-01-22T19:07:04.252Z,1036.928732203936
2023-01-22T19:13:38.623Z,1036.9702012808818
2023-01-22T19:31:16.837Z,1037.1505931470795
2023-01-22T19:38:15.487Z,1037.194380681541
2023-01-22T19:45:04.843Z,1037.2384891508584
2023-01-22T19:54:06.620Z,1037.3237589221878
2023-01-22T20:00:29.733Z,1037.4179639620647
2023-01-22T20:06:52.788Z,1037.51316234556
2023-01-22T20:13:19.317Z,1037.5922862943994
2023-01-22T20:19:43.708Z,1037.6005710489815
2023-01-22T20:26:09.520Z,1037.6315554984355
2023-01-22T20:32:32.388Z,1037.6864660480737
2023-01-22T20:38:55.893Z,1037.7378219483671
2023-01-22T20:45:19.824Z,1037.776600307324
2023-01-22T20:51:42.977Z,1037.770916892761
2023-01-22T20:58:05.748Z,1037.811188707994
2023-01-22T21:11:38.394Z,1037.8449460780932
2023-01-22T21:18:02.996Z,1037.8453403164765
2023-01-22T21:24:31.051Z,1037.7912086661477
2023-01-22T21:30:56.871Z,1037.783226701015
2023-01-22T21:37:21.359Z,1037.7588662239875
2023-01-22T21:44:38.380Z,1037.767646192295
2023-01-22T21:55:33.959Z,1037.8213962188488
2023-01-22T22:02:00.693Z,1037.8752589406108
2023-01-22T22:08:26.844Z,1037.9092168227821
2023-01-22T22:14:53.158Z,1037.9264176703587
2023-01-22T22:21:17.544Z,1038.0034586590004
2023-01-22T22:27:42.406Z,1038.0119438503818
2023-01-22T22:34:06.805Z,1038.0517996512838
2023-01-22T22:49:18.977Z,1038.0597227978826
2023-01-22T22:58:56.278Z,1038.0599767253443
2023-01-22T23:05:19.211Z,1038.0674109727609
2023-01-22T23:11:42.645Z,1038.0210775385738
2023-01-22T23:18:09.613Z,1038.0442399295357
2023-01-22T23:24:37.530Z,1038.1188310459493
2023-01-22T23:33:31.468Z,1038.1953324699155
2023-01-22T23:49:41.796Z,1038.2651583060508
2023-01-22T23:56:06.198Z,1038.2373575204065
